createdAt,value
2024-01-11T00:00:25.168Z,95.3
2024-01-11T00:01:39.464Z,95.4
2024-01-11T00:02:53.759Z,95.4
2024-01-11T00:04:08.054Z,95.8
2024-01-11T00:05:22.350Z,95.9
2024-01-11T00:06:36.645Z,95.9
2024-01-11T00:07:50.940Z,95.7
2024-01-11T00:09:05.235Z,95.4
2024-01-11T00:10:19.530Z,94.7
2024-01-11T00:11:32.842Z,94.3
2024-01-11T00:12:47.137Z,94.1
2024-01-11T00:15:15.727Z,93.8
2024-01-11T00:16:30.023Z,93.7
2024-01-11T00:17:44.318Z,93.5
2024-01-11T00:18:58.613Z,93.4
2024-01-11T00:20:12.908Z,93.3
2024-01-11T00:21:27.204Z,93.1
2024-01-11T00:22:41.499Z,93
2024-01-11T00:23:55.794Z,92.8
2024-01-11T00:25:10.090Z,93.1
2024-01-11T00:26:24.385Z,93
2024-01-11T00:27:37.696Z,92.8
2024-01-11T00:28:51.992Z,93
2024-01-11T00:30:06.287Z,92.9
2024-01-11T00:31:20.582Z,93.3
2024-01-11T00:32:34.877Z,94.3
2024-01-11T00:33:49.173Z,95.1
2024-01-11T00:35:03.468Z,95.6
2024-01-11T00:36:17.763Z,95.3
2024-01-11T00:37:32.059Z,95.1
2024-01-11T00:38:46.354Z,95.7
2024-01-11T00:40:00.650Z,96.2
2024-01-11T00:41:14.945Z,96.2
2024-01-11T00:42:29.240Z,96
2024-01-11T00:43:42.552Z,96.2
2024-01-11T00:44:56.847Z,96
2024-01-11T00:46:11.142Z,95.3
2024-01-11T00:47:25.437Z,94.9
2024-01-11T00:48:39.733Z,94.5
2024-01-11T00:49:54.028Z,94.7
2024-01-11T00:51:08.324Z,94.7
2024-01-11T00:52:22.619Z,94.1
2024-01-11T00:53:36.914Z,93.7
2024-01-11T00:54:51.210Z,93.7
2024-01-11T00:56:05.505Z,93.9
2024-01-11T00:57:19.800Z,94.1
2024-01-11T00:58:34.074Z,94.1
2024-01-11T00:59:48.391Z,94.1
2024-01-11T01:01:01.702Z,94.3
2024-01-11T01:02:15.998Z,94.3
2024-01-11T01:03:30.293Z,93.9
2024-01-11T01:04:44.588Z,93.7
2024-01-11T01:05:58.859Z,93.8
2024-01-11T01:07:13.179Z,93.8
2024-01-11T01:09:41.770Z,94.6
2024-01-11T01:10:56.065Z,94.8
2024-01-11T01:12:10.360Z,95
2024-01-11T01:13:24.655Z,95.1
2024-01-11T01:14:38.951Z,94.7
2024-01-11T01:15:53.246Z,94.3
2024-01-11T01:17:06.557Z,94.3
2024-01-11T01:18:20.852Z,94.9
2024-01-11T01:19:35.148Z,95.1
2024-01-11T01:20:49.443Z,95.4
2024-01-11T01:22:03.716Z,95.7
2024-01-11T01:23:18.034Z,95.7
2024-01-11T01:24:32.329Z,95.7
2024-01-11T01:25:46.625Z,95.7
2024-01-11T01:27:00.920Z,95.8
2024-01-11T01:28:15.215Z,95.8
2024-01-11T01:29:29.511Z,95.8
2024-01-11T01:30:43.806Z,95.7
2024-01-11T01:31:58.101Z,95.3
2024-01-11T01:33:11.413Z,94.8
2024-01-11T01:34:25.708Z,94.3
2024-01-11T01:35:39.982Z,93.9
2024-01-11T01:36:54.299Z,94
2024-01-11T01:38:08.594Z,94
2024-01-11T01:39:22.889Z,93.9
2024-01-11T01:40:37.185Z,94
2024-01-11T01:41:51.480Z,94
2024-01-11T01:44:20.071Z,94.9
2024-01-11T01:45:34.366Z,95.2
2024-01-11T01:46:48.662Z,95.5
2024-01-11T01:48:02.957Z,95.7
2024-01-11T01:49:16.268Z,95.7
2024-01-11T01:50:30.564Z,95.5
2024-01-11T01:51:44.859Z,95.2
2024-01-11T01:52:59.155Z,95.2
2024-01-11T01:54:13.450Z,95.1
2024-01-11T01:55:27.745Z,95.4
2024-01-11T01:56:42.040Z,95.5
2024-01-11T01:57:56.336Z,95.5
2024-01-11T01:59:10.631Z,95.4
2024-01-11T02:00:24.902Z,94.8
2024-01-11T02:01:39.222Z,94.2
2024-01-11T02:02:53.517Z,93.5
2024-01-11T02:04:07.813Z,93.2
2024-01-11T02:05:21.124Z,93.1
2024-01-11T02:06:35.419Z,93
2024-01-11T02:07:49.715Z,92.8
2024-01-11T02:09:04.010Z,92.7
2024-01-11T02:10:18.305Z,92.5
2024-01-11T02:11:32.601Z,92.6
2024-01-11T02:12:46.886Z,92.6
2024-01-11T02:14:01.191Z,93
2024-01-11T02:15:15.487Z,93.1
2024-01-11T02:16:29.782Z,93.2
2024-01-11T02:17:44.077Z,93.3
2024-01-11T02:18:58.373Z,93.5
2024-01-11T02:20:12.648Z,94.2
2024-01-11T02:21:25.979Z,94.7
2024-01-11T02:22:40.252Z,94.9
2024-01-11T02:23:54.570Z,95
2024-01-11T02:25:08.865Z,95
2024-01-11T02:26:23.161Z,95.3
2024-01-11T02:27:37.456Z,95.3
2024-01-11T02:28:51.751Z,95.2
2024-01-11T02:30:06.047Z,95.1
2024-01-11T02:31:20.342Z,95.2
2024-01-11T02:32:34.637Z,95.2
2024-01-11T02:33:48.933Z,95.6
2024-01-11T02:35:03.228Z,96.1
2024-01-11T02:36:17.524Z,96.2
2024-01-11T02:37:30.835Z,96.3
2024-01-11T02:38:45.130Z,96.7
2024-01-11T02:39:59.425Z,96.5
2024-01-11T02:41:13.721Z,96.2
2024-01-11T02:42:28.016Z,96.1
2024-01-11T02:43:42.311Z,96.1
2024-01-11T02:44:56.607Z,96.1
2024-01-11T02:46:10.902Z,96.1
2024-01-11T02:47:25.197Z,96.2
2024-01-11T02:48:39.493Z,96.2
2024-01-11T02:49:53.788Z,96
2024-01-11T02:51:08.083Z,95.5
2024-01-11T02:52:22.378Z,95.7
2024-01-11T02:53:35.685Z,96
2024-01-11T02:54:49.985Z,95.6
2024-01-11T02:56:04.280Z,95
2024-01-11T02:57:18.576Z,95
2024-01-11T02:58:32.871Z,95.6
2024-01-11T02:59:46.187Z,96
2024-01-11T03:01:00.483Z,96.2
2024-01-11T03:02:14.778Z,96.2
2024-01-11T03:03:29.073Z,95.9
2024-01-11T03:04:43.368Z,95.9
2024-01-11T03:05:57.664Z,96.2
2024-01-11T03:07:11.959Z,96.5
2024-01-11T03:08:26.254Z,96.7
2024-01-11T03:09:40.528Z,96.7
2024-01-11T03:10:54.845Z,96.7
2024-01-11T03:12:09.140Z,96.2
2024-01-11T03:13:23.435Z,95.8
2024-01-11T03:14:37.712Z,95.9
2024-01-11T03:15:51.042Z,96
2024-01-11T03:17:05.337Z,95.9
2024-01-11T03:18:19.632Z,95.2
2024-01-11T03:19:33.909Z,94.6
2024-01-11T03:20:48.223Z,93.8
2024-01-11T03:22:02.518Z,93.4
2024-01-11T03:23:16.814Z,93.3
2024-01-11T03:24:31.110Z,93.4
2024-01-11T03:25:45.405Z,93.6
2024-01-11T03:28:13.996Z,93.7
2024-01-11T03:29:28.291Z,93.8
2024-01-11T03:30:42.586Z,94.1
2024-01-11T03:31:55.898Z,94.2
2024-01-11T03:33:10.193Z,94.2
2024-01-11T03:34:24.488Z,94.2
2024-01-11T03:35:38.783Z,94.5
2024-01-11T03:36:53.054Z,94.6
2024-01-11T03:38:07.374Z,94.9
2024-01-11T03:39:21.669Z,95.5
2024-01-11T03:40:35.965Z,96.1
2024-01-11T03:41:50.250Z,96.6
2024-01-11T03:43:04.555Z,96.9
2024-01-11T03:44:18.851Z,96.8
2024-01-11T03:45:33.146Z,97.1
2024-01-11T03:46:47.441Z,97.1
2024-01-11T03:48:00.752Z,97.1
2024-01-11T03:49:15.030Z,97.3
2024-01-11T03:50:29.343Z,97.3
2024-01-11T03:51:43.638Z,96.9
2024-01-11T03:52:57.934Z,96.5
2024-01-11T03:54:12.229Z,96.4
2024-01-11T03:55:26.524Z,96.2
2024-01-11T03:56:40.820Z,95.9
2024-01-11T03:57:55.115Z,95.8
2024-01-11T03:59:09.410Z,95.7
2024-01-11T04:00:23.705Z,95.9
2024-01-11T04:01:38.001Z,96
2024-01-11T04:02:52.296Z,96.2
2024-01-11T04:04:05.607Z,96.4
2024-01-11T04:05:19.903Z,96.5
2024-01-11T04:06:34.198Z,96.2
2024-01-11T04:07:48.493Z,95.7
2024-01-11T04:09:02.788Z,95.3
2024-01-11T04:10:17.083Z,95.3
2024-01-11T04:11:31.379Z,95.3
2024-01-11T04:12:45.674Z,95
2024-01-11T04:13:59.969Z,94.8
2024-01-11T04:15:14.265Z,95.4
2024-01-11T04:16:28.560Z,95.5
2024-01-11T04:17:42.855Z,95.7
2024-01-11T04:18:57.150Z,95.8
2024-01-11T04:20:10.462Z,96
2024-01-11T04:21:24.757Z,96.1
2024-01-11T04:22:39.052Z,96.2
2024-01-11T04:23:53.348Z,96.3
2024-01-11T04:25:07.643Z,96.4
2024-01-11T04:26:21.938Z,96.4
2024-01-11T04:27:36.233Z,96.2
2024-01-11T04:28:50.513Z,96.3
2024-01-11T04:30:04.824Z,96.3
2024-01-11T04:31:19.119Z,96.1
2024-01-11T04:32:33.414Z,96.2
2024-01-11T04:33:47.711Z,96.1
2024-01-11T04:35:02.006Z,95.8
2024-01-11T04:36:15.317Z,95.4
2024-01-11T04:37:29.612Z,94.6
2024-01-11T04:38:43.908Z,94.1
2024-01-11T04:39:58.203Z,93.8
2024-01-11T04:41:12.498Z,93.4
2024-01-11T04:42:26.794Z,93.5
2024-01-11T04:43:41.089Z,93.4
2024-01-11T04:44:55.384Z,93.3
2024-01-11T04:46:09.680Z,93.2
2024-01-11T04:47:23.975Z,93.3
2024-01-11T04:48:38.270Z,93.5
2024-01-11T04:49:52.565Z,93.7
2024-01-11T04:51:06.861Z,94
2024-01-11T04:52:20.172Z,94.2
2024-01-11T04:53:34.467Z,94.5
2024-01-11T04:54:48.762Z,94.5
2024-01-11T04:56:03.058Z,94.6
2024-01-11T04:57:17.353Z,94.9
2024-01-11T04:58:31.648Z,95.4
2024-01-11T04:59:45.943Z,95.6
2024-01-11T05:01:00.239Z,95.7
2024-01-11T05:02:14.534Z,95.7
2024-01-11T05:03:28.818Z,95.7
2024-01-11T05:04:43.124Z,95.7
2024-01-11T05:05:57.419Z,96.1
2024-01-11T05:07:11.715Z,96.2
2024-01-11T05:08:25.026Z,96.2
2024-01-11T05:09:39.321Z,96.5
2024-01-11T05:10:53.616Z,97
2024-01-11T05:12:07.912Z,97.5
2024-01-11T05:13:22.207Z,97.8
2024-01-11T05:14:36.502Z,97.9
2024-01-11T05:15:50.797Z,98.2
2024-01-11T05:17:05.093Z,98.2
2024-01-11T05:19:33.683Z,97.8
2024-01-11T05:20:47.978Z,97.6
2024-01-11T05:22:02.274Z,97.4
2024-01-11T05:23:16.558Z,97.4
2024-01-11T05:24:29.880Z,97.4
2024-01-11T05:25:44.175Z,97.5
2024-01-11T05:26:58.470Z,97.7
2024-01-11T05:28:12.766Z,97.9
2024-01-11T05:29:27.061Z,98.1
2024-01-11T05:30:41.356Z,98.3
2024-01-11T05:31:55.651Z,98.3
2024-01-11T05:33:09.928Z,98.2
2024-01-11T05:34:24.242Z,97.8
2024-01-11T05:35:38.537Z,97.8
2024-01-11T05:36:52.832Z,97.8
2024-01-11T05:38:07.128Z,97.6
2024-01-11T05:39:21.423Z,97.4
2024-01-11T05:40:34.723Z,97.3
2024-01-11T05:41:49.029Z,97.3
2024-01-11T05:43:03.299Z,97.1
2024-01-11T05:44:17.620Z,96.6
2024-01-11T05:45:31.915Z,95.7
2024-01-11T05:46:46.210Z,95.1
2024-01-11T05:48:00.482Z,94.8
2024-01-11T05:49:14.801Z,94.6
2024-01-11T05:50:29.096Z,94.4
2024-01-11T05:51:43.391Z,94.4
2024-01-11T05:52:57.687Z,94.3
2024-01-11T05:54:11.982Z,94
2024-01-11T05:55:26.277Z,93.8
2024-01-11T05:56:39.588Z,93.9
2024-01-11T05:57:53.884Z,94.1
2024-01-11T05:59:08.179Z,94.4
2024-01-11T06:00:22.475Z,94.4
2024-01-11T06:01:36.770Z,94.5
2024-01-11T06:02:51.040Z,95.2
2024-01-11T06:04:05.334Z,95.8
2024-01-11T06:05:19.655Z,96.3
2024-01-11T06:06:33.950Z,96.5
2024-01-11T06:07:48.245Z,96.5
2024-01-11T06:09:02.541Z,96.7
2024-01-11T06:10:16.836Z,96.7
2024-01-11T06:11:31.131Z,96.6
2024-01-11T06:12:44.442Z,96.4
2024-01-11T06:13:58.738Z,96.5
2024-01-11T06:15:13.033Z,96.7
2024-01-11T06:16:27.328Z,96.9
2024-01-11T06:17:41.602Z,97.3
2024-01-11T06:18:55.919Z,97.4
2024-01-11T06:20:10.214Z,96.9
2024-01-11T06:21:24.510Z,96.9
2024-01-11T06:22:38.805Z,96.5
2024-01-11T06:23:53.100Z,96.4
2024-01-11T06:25:07.396Z,96.4
2024-01-11T06:26:21.637Z,96.1
2024-01-11T06:27:35.932Z,95.7
2024-01-11T06:28:49.243Z,95.4
2024-01-11T06:30:03.539Z,95.4
2024-01-11T06:31:17.791Z,95.3
2024-01-11T06:32:32.087Z,95.4
2024-01-11T06:33:46.382Z,95.5
2024-01-11T06:35:00.671Z,95.7
2024-01-11T06:36:14.974Z,96
2024-01-11T06:37:29.269Z,96.2
2024-01-11T06:38:43.565Z,96.2
2024-01-11T06:39:57.817Z,96.3
2024-01-11T06:41:12.059Z,96.5
2024-01-11T06:42:26.300Z,96.9
2024-01-11T06:43:40.542Z,97
2024-01-11T06:44:53.799Z,97.3
2024-01-11T06:46:08.040Z,98
2024-01-11T06:47:22.268Z,98.4
2024-01-11T06:48:36.523Z,98.8
2024-01-11T06:49:50.764Z,99.1
2024-01-11T06:51:05.005Z,99.7
2024-01-11T06:52:19.246Z,100
2024-01-11T06:53:33.488Z,100
2024-01-11T06:54:47.729Z,100
2024-01-11T06:56:01.971Z,100
2024-01-11T06:57:16.202Z,100
2024-01-11T06:58:30.454Z,100
2024-01-11T06:59:44.695Z,100
2024-01-11T07:00:57.952Z,100
2024-01-11T07:02:12.177Z,99.8
2024-01-11T07:03:26.434Z,99.6
2024-01-11T07:04:40.676Z,99.3
2024-01-11T07:05:54.917Z,99.1
2024-01-11T07:07:09.134Z,99.1
2024-01-11T07:08:22.420Z,99.4
2024-01-11T07:09:36.635Z,99.3
2024-01-11T07:10:50.903Z,99.3
2024-01-11T07:12:05.144Z,99.2
2024-01-11T07:13:19.385Z,99
2024-01-11T07:14:33.626Z,98.7
2024-01-11T07:15:47.868Z,98.7
2024-01-11T07:17:02.102Z,98.6
2024-01-11T07:18:16.350Z,98.5
2024-01-11T07:19:30.591Z,98.4
2024-01-11T07:20:44.832Z,98.3
2024-01-11T07:21:59.073Z,98.4
2024-01-11T07:23:13.314Z,98.3
2024-01-11T07:24:26.571Z,98
2024-01-11T07:25:40.812Z,97.9
2024-01-11T07:26:55.054Z,97.7
2024-01-11T07:28:09.295Z,97.5
2024-01-11T07:29:23.536Z,97.2
2024-01-11T07:30:37.777Z,96.9
2024-01-11T07:31:52.018Z,96.7
2024-01-11T07:33:06.259Z,96.4
2024-01-11T07:34:20.500Z,96
2024-01-11T07:35:34.741Z,95.2
2024-01-11T07:36:48.982Z,95.1
2024-01-11T07:38:03.223Z,95.7
2024-01-11T07:39:17.453Z,96.2
2024-01-11T07:40:31.706Z,96.9
2024-01-11T07:41:44.963Z,97.1
2024-01-11T07:42:59.204Z,97.2
2024-01-11T07:44:13.445Z,97.2
2024-01-11T07:45:27.686Z,97.3
2024-01-11T07:46:41.909Z,97.4
2024-01-11T07:47:56.168Z,97.4
2024-01-11T07:49:10.409Z,97.3
2024-01-11T07:50:24.650Z,97.3
2024-01-11T07:51:38.891Z,97.4
2024-01-11T07:52:53.132Z,97.5
2024-01-11T07:54:07.373Z,97.4
2024-01-11T07:55:21.614Z,97.3
2024-01-11T07:56:35.855Z,97
2024-01-11T07:57:49.112Z,96.8
2024-01-11T07:59:03.354Z,96.6
2024-01-11T08:00:17.595Z,96.2
2024-01-11T08:01:31.836Z,95.8
2024-01-11T08:02:46.077Z,95.5
2024-01-11T08:04:00.318Z,95.8
2024-01-11T08:05:14.559Z,96
2024-01-11T08:06:28.800Z,95.9
2024-01-11T08:07:43.041Z,96.1
2024-01-11T08:08:57.283Z,96
2024-01-11T08:10:11.524Z,95.9
2024-01-11T08:11:25.765Z,95.7
2024-01-11T08:12:40.006Z,95.3
2024-01-11T08:13:53.263Z,95.2
2024-01-11T08:15:07.504Z,95.2
2024-01-11T08:16:21.745Z,95.4
2024-01-11T08:17:35.986Z,95.7
2024-01-11T08:18:50.227Z,95.9
2024-01-11T08:20:04.468Z,96.3
2024-01-11T08:21:18.709Z,96.8
2024-01-11T08:22:32.950Z,97
2024-01-11T08:23:47.191Z,97.1
2024-01-11T08:25:01.432Z,97.1
2024-01-11T08:26:15.673Z,97.1
2024-01-11T08:27:29.914Z,97.2
2024-01-11T08:28:44.155Z,97.1
2024-01-11T08:29:57.412Z,97.2
2024-01-11T08:31:11.653Z,97.1
2024-01-11T08:32:25.894Z,97.1
2024-01-11T08:33:40.135Z,97.1
2024-01-11T08:34:54.376Z,97.1
2024-01-11T08:36:08.617Z,97.1
2024-01-11T08:37:22.858Z,97
2024-01-11T08:38:37.099Z,96.4
2024-01-11T08:39:51.340Z,96.4
2024-01-11T08:41:05.581Z,96.5
2024-01-11T08:42:19.822Z,96.7
2024-01-11T08:43:34.063Z,96.8
2024-01-11T08:44:48.304Z,96.8
2024-01-11T08:46:01.561Z,96.6
2024-01-11T08:47:15.801Z,96.3
2024-01-11T08:48:30.042Z,96.3
2024-01-11T08:49:44.283Z,96.4
2024-01-11T08:50:58.514Z,96.6
2024-01-11T08:52:12.765Z,96.8
2024-01-11T08:53:27.007Z,96.6
2024-01-11T08:54:41.247Z,96.8
2024-01-11T08:55:55.488Z,96.9
2024-01-11T08:57:09.729Z,96.8
2024-01-11T08:58:23.969Z,96.7
2024-01-11T08:59:38.210Z,96.5
2024-01-11T09:00:52.451Z,96.2
2024-01-11T09:02:05.707Z,95.7
2024-01-11T09:03:19.929Z,95.3
2024-01-11T09:04:34.189Z,95.3
2024-01-11T09:05:48.430Z,95.3
2024-01-11T09:07:02.670Z,95.3
2024-01-11T09:08:16.911Z,95.2
2024-01-11T09:09:31.151Z,94.7
2024-01-11T09:10:45.392Z,94.7
2024-01-11T09:11:59.633Z,94.8
2024-01-11T09:13:13.873Z,94.7
2024-01-11T09:14:28.114Z,94.3
2024-01-11T09:15:42.355Z,94.6
2024-01-11T09:16:56.595Z,94.8
2024-01-11T09:18:09.852Z,94.6
2024-01-11T09:19:24.093Z,94.5
2024-01-11T09:20:38.344Z,94.1
2024-01-11T09:21:52.585Z,94.3
2024-01-11T09:23:06.816Z,94.4
2024-01-11T09:24:21.066Z,94.2
2024-01-11T09:25:35.307Z,93.5
2024-01-11T09:26:49.547Z,93.7
2024-01-11T09:28:03.787Z,93.1
2024-01-11T09:29:18.027Z,91.9
2024-01-11T09:30:32.267Z,91.2
2024-01-11T09:31:46.506Z,91
2024-01-11T09:33:00.746Z,90.9
2024-01-11T09:34:14.002Z,91.2
2024-01-11T09:35:28.242Z,91.4
2024-01-11T09:36:42.481Z,91.7
2024-01-11T09:37:56.720Z,91.7
2024-01-11T09:39:10.960Z,91.6
2024-01-11T09:40:25.200Z,89.8
2024-01-11T09:41:39.439Z,90.2
2024-01-11T09:42:53.679Z,90.7
2024-01-11T09:44:07.918Z,90.7
2024-01-11T09:45:22.158Z,90.1
2024-01-11T09:46:36.398Z,89
2024-01-11T09:47:50.637Z,89.3
2024-01-11T09:49:04.877Z,89.3
2024-01-11T09:50:18.133Z,89.2
2024-01-11T09:51:32.372Z,88.9
2024-01-11T09:52:46.612Z,89.2
2024-01-11T09:54:00.851Z,88.5
2024-01-11T09:55:15.091Z,88.1
2024-01-11T09:56:29.331Z,88
2024-01-11T09:57:43.570Z,88.7
2024-01-11T09:58:57.809Z,88.3
2024-01-11T10:00:12.048Z,88.2
2024-01-11T10:01:26.287Z,89
2024-01-11T10:02:40.526Z,88.3
2024-01-11T10:03:54.765Z,88.4
2024-01-11T10:05:09.004Z,88.5
2024-01-11T10:06:22.259Z,89.2
2024-01-11T10:07:36.498Z,88.5
2024-01-11T10:08:50.737Z,88.4
2024-01-11T10:10:04.976Z,89
2024-01-11T10:11:19.215Z,88.4
2024-01-11T10:12:33.454Z,88
2024-01-11T10:13:47.693Z,88.7
2024-01-11T10:15:01.932Z,88.2
2024-01-11T10:16:16.171Z,87.8
2024-01-11T10:17:30.411Z,87.7
2024-01-11T10:18:44.650Z,88.8
2024-01-11T10:19:58.889Z,88.5
2024-01-11T10:21:13.128Z,87.9
2024-01-11T10:22:26.383Z,86.9
2024-01-11T10:23:40.622Z,87.1
2024-01-11T10:24:54.861Z,88.2
2024-01-11T10:26:09.100Z,89
2024-01-11T10:27:23.339Z,89.3
2024-01-11T10:28:37.579Z,89.6
2024-01-11T10:29:51.804Z,89.9
2024-01-11T10:31:06.057Z,89.4
2024-01-11T10:32:20.296Z,89.5
2024-01-11T10:33:34.536Z,89.7
2024-01-11T10:34:48.776Z,89.3
2024-01-11T10:36:03.015Z,89.2
2024-01-11T10:37:17.255Z,89.5
2024-01-11T10:38:30.511Z,89.9
2024-01-11T10:39:44.751Z,90.3
2024-01-11T10:40:58.990Z,89.9
2024-01-11T10:42:13.230Z,89.4
2024-01-11T10:43:27.469Z,89.3
2024-01-11T10:44:41.710Z,89.3
2024-01-11T10:45:55.949Z,88.8
2024-01-11T10:47:10.189Z,88.7
2024-01-11T10:48:24.428Z,89.3
2024-01-11T10:49:38.668Z,88.6
2024-01-11T10:50:52.908Z,88.5
2024-01-11T10:52:07.148Z,88.9
2024-01-11T10:53:21.387Z,88.7
2024-01-11T10:54:34.643Z,88
2024-01-11T10:55:48.883Z,88.1
2024-01-11T10:57:03.123Z,88
2024-01-11T10:58:17.363Z,88.2
2024-01-11T10:59:31.604Z,88.2
2024-01-11T11:00:45.844Z,88.1
2024-01-11T11:02:00.084Z,87.4
2024-01-11T11:03:14.325Z,88.3
2024-01-11T11:04:28.565Z,88
2024-01-11T11:05:42.805Z,87.2
2024-01-11T11:06:57.045Z,86.5
2024-01-11T11:08:11.286Z,86.8
2024-01-11T11:09:25.504Z,86.7
2024-01-11T11:10:38.782Z,86.1
2024-01-11T11:11:53.023Z,86.1
2024-01-11T11:13:07.263Z,86.5
2024-01-11T11:14:21.503Z,86.7
2024-01-11T11:15:35.744Z,86.5
2024-01-11T11:16:48.977Z,85.1
2024-01-11T11:18:03.245Z,85.7
2024-01-11T11:19:17.486Z,85.6
2024-01-11T11:20:31.726Z,86.2
2024-01-11T11:21:45.966Z,84.2
2024-01-11T11:23:00.207Z,83.9
2024-01-11T11:24:14.447Z,83.9
2024-01-11T11:25:28.688Z,85
2024-01-11T11:26:42.928Z,84.8
2024-01-11T11:27:57.168Z,83.7
2024-01-11T11:29:11.408Z,83.2
2024-01-11T11:30:25.648Z,83.2
2024-01-11T11:31:39.888Z,83
2024-01-11T11:32:53.145Z,83.7
2024-01-11T11:34:07.385Z,84.1
2024-01-11T11:35:21.625Z,83.9
2024-01-11T11:36:35.838Z,83.6
2024-01-11T11:37:50.106Z,83.9
2024-01-11T11:39:04.346Z,83.3
2024-01-11T11:40:18.585Z,83.6
2024-01-11T11:41:32.826Z,83.9
2024-01-11T11:42:47.066Z,83.7
2024-01-11T11:44:01.306Z,83.1
2024-01-11T11:45:15.546Z,82
2024-01-11T11:46:29.787Z,82.4
2024-01-11T11:47:44.027Z,82.7
2024-01-11T11:48:57.283Z,83.1
2024-01-11T11:50:11.523Z,83.1
2024-01-11T11:51:25.764Z,83.5
2024-01-11T11:52:40.004Z,83.2
2024-01-11T11:53:54.244Z,82.8
2024-01-11T11:55:08.484Z,81.9
2024-01-11T11:56:22.724Z,79.5
2024-01-11T11:57:36.963Z,80.2
2024-01-11T11:58:51.183Z,79.9
2024-01-11T12:00:05.442Z,80.5
2024-01-11T12:01:19.682Z,80.3
2024-01-11T12:02:33.922Z,79.6
2024-01-11T12:03:48.162Z,80
2024-01-11T12:05:01.418Z,80.2
2024-01-11T12:06:15.658Z,80.4
2024-01-11T12:07:29.898Z,80.1
2024-01-11T12:08:44.138Z,79.6
2024-01-11T12:09:58.378Z,79.2
2024-01-11T12:11:12.619Z,79.8
2024-01-11T12:12:26.859Z,79.4
2024-01-11T12:13:41.099Z,79.4
2024-01-11T12:14:55.339Z,78.5
2024-01-11T12:16:09.580Z,77
2024-01-11T12:17:23.820Z,77.5
2024-01-11T12:18:38.060Z,78.6
2024-01-11T12:19:52.299Z,79.5
2024-01-11T12:21:05.555Z,81.1
2024-01-11T12:22:19.795Z,79.7
2024-01-11T12:23:34.035Z,77.7
2024-01-11T12:24:48.275Z,77.1
2024-01-11T12:26:02.514Z,78.1
2024-01-11T12:27:16.754Z,77.4
2024-01-11T12:28:30.994Z,76.6
2024-01-11T12:29:45.233Z,75.4
2024-01-11T12:30:59.473Z,74.8
2024-01-11T12:32:13.704Z,74.8
2024-01-11T12:33:27.953Z,76.2
2024-01-11T12:34:42.193Z,76.9
2024-01-11T12:35:56.433Z,74.8
2024-01-11T12:37:09.688Z,74
2024-01-11T12:38:23.928Z,73.6
2024-01-11T12:39:38.168Z,73.9
2024-01-11T12:40:52.408Z,74.2
2024-01-11T12:42:06.647Z,73.4
2024-01-11T12:43:20.887Z,74.2
2024-01-11T12:44:35.127Z,73.7
2024-01-11T12:45:49.366Z,73.9
2024-01-11T12:47:03.606Z,73.8
2024-01-11T12:48:17.846Z,73.2
2024-01-11T12:49:32.086Z,73.6
2024-01-11T12:50:46.325Z,73.3
2024-01-11T12:52:00.565Z,73.4
2024-01-11T12:53:13.820Z,74
2024-01-11T12:54:28.060Z,73.2
2024-01-11T12:55:42.300Z,72.5
2024-01-11T12:56:56.539Z,71.4
2024-01-11T12:58:10.779Z,71.1
2024-01-11T12:59:25.019Z,71.2
2024-01-11T13:00:39.259Z,71.4
2024-01-11T13:01:53.498Z,71.8
2024-01-11T13:03:07.731Z,70.9
2024-01-11T13:04:21.977Z,72.2
2024-01-11T13:05:36.217Z,72.2
2024-01-11T13:06:50.457Z,72.5
2024-01-11T13:08:04.687Z,72.8
2024-01-11T13:09:17.953Z,72.5
2024-01-11T13:10:32.178Z,73.1
2024-01-11T13:11:46.433Z,73.5
2024-01-11T13:13:00.673Z,74
2024-01-11T13:14:14.913Z,74.6
2024-01-11T13:15:29.153Z,74.7
2024-01-11T13:16:43.393Z,75.3
2024-01-11T13:17:57.633Z,75.6
2024-01-11T13:19:11.848Z,76.2
2024-01-11T13:20:26.115Z,75.8
2024-01-11T13:21:40.355Z,76.2
2024-01-11T13:22:54.583Z,76.2
2024-01-11T13:24:08.835Z,75.6
2024-01-11T13:25:22.091Z,75.2
2024-01-11T13:26:36.331Z,75.4
2024-01-11T13:27:50.572Z,75.5
2024-01-11T13:29:04.812Z,74.5
2024-01-11T13:30:19.052Z,73.5
2024-01-11T13:31:33.292Z,73.7
2024-01-11T13:32:47.533Z,74.2
2024-01-11T13:34:01.773Z,74.6
2024-01-11T13:35:16.013Z,75.2
2024-01-11T13:36:30.253Z,74.8
2024-01-11T13:37:44.472Z,73.8
2024-01-11T13:38:58.734Z,74.4
2024-01-11T13:40:12.974Z,74.8
2024-01-11T13:41:26.230Z,75
2024-01-11T13:42:40.470Z,75.6
2024-01-11T13:43:54.710Z,74.7
2024-01-11T13:45:08.950Z,74.3
2024-01-11T13:46:23.190Z,74.4
2024-01-11T13:47:37.430Z,74.3
2024-01-11T13:48:51.669Z,74.3
2024-01-11T13:50:05.909Z,74.4
2024-01-11T13:51:20.149Z,74.5
2024-01-11T13:52:34.366Z,74.6
2024-01-11T13:53:48.630Z,74.7
2024-01-11T13:55:02.870Z,75
2024-01-11T13:56:17.110Z,74.8
2024-01-11T13:57:30.367Z,75.3
2024-01-11T13:58:44.583Z,75.2
2024-01-11T13:59:58.847Z,75.1
2024-01-11T14:01:13.087Z,75.4
2024-01-11T14:02:27.328Z,75.8
2024-01-11T14:03:41.568Z,76.4
2024-01-11T14:04:55.808Z,75.2
2024-01-11T14:06:10.048Z,75.4
2024-01-11T14:08:38.529Z,75.6
2024-01-11T14:09:52.769Z,75.9
2024-01-11T14:11:07.009Z,75.8
2024-01-11T14:12:21.249Z,75.6
2024-01-11T14:13:35.490Z,75.9
2024-01-11T14:14:48.746Z,76.4
2024-01-11T14:16:02.986Z,76.3
2024-01-11T14:17:17.227Z,76.2
2024-01-11T14:18:31.467Z,76.2
2024-01-11T14:19:45.707Z,76.5
2024-01-11T14:20:59.947Z,76.8
2024-01-11T14:22:14.169Z,76.8
2024-01-11T14:23:28.428Z,76.9
2024-01-11T14:24:42.668Z,77.1
2024-01-11T14:25:56.909Z,76.8
2024-01-11T14:27:11.149Z,76.9
2024-01-11T14:28:25.389Z,77.5
2024-01-11T14:29:39.629Z,77.7
2024-01-11T14:30:52.886Z,77.7
2024-01-11T14:32:07.106Z,77.7
2024-01-11T14:33:21.366Z,78
2024-01-11T14:34:35.581Z,78
2024-01-11T14:35:49.847Z,78.2
2024-01-11T14:37:04.063Z,78.3
2024-01-11T14:38:18.328Z,78
2024-01-11T14:39:32.568Z,77.9
2024-01-11T14:40:46.808Z,78
2024-01-11T14:42:01.048Z,78.1
2024-01-11T14:43:15.290Z,78.1
2024-01-11T14:44:29.530Z,78.3
2024-01-11T14:45:43.770Z,78.6
2024-01-11T14:46:57.027Z,78.8
2024-01-11T14:48:11.267Z,79
2024-01-11T14:49:25.499Z,77.1
2024-01-11T14:50:39.747Z,75.8
2024-01-11T14:51:53.961Z,74.8
2024-01-11T14:53:08.228Z,74.4
2024-01-11T14:54:22.459Z,74.1
2024-01-11T14:55:36.710Z,74.1
2024-01-11T14:56:50.942Z,73.9
2024-01-11T14:58:05.190Z,74.1
2024-01-11T14:59:19.431Z,74.2
2024-01-11T15:00:33.671Z,74.2
2024-01-11T15:01:47.911Z,74.5
2024-01-11T15:03:01.167Z,74.7
2024-01-11T15:04:15.394Z,74.7
2024-01-11T15:05:29.648Z,74.9
2024-01-11T15:06:43.873Z,75
2024-01-11T15:07:58.129Z,75.5
2024-01-11T15:09:12.369Z,75.8
2024-01-11T15:10:26.609Z,75.9
2024-01-11T15:11:40.828Z,75.9
2024-01-11T15:12:55.090Z,76.2
2024-01-11T15:14:09.330Z,76.8
2024-01-11T15:15:23.570Z,77.4
2024-01-11T15:16:37.811Z,77.6
2024-01-11T15:17:52.051Z,77.6
2024-01-11T15:20:19.548Z,77.7
2024-01-11T15:21:33.775Z,78.2
2024-01-11T15:22:48.028Z,78.4
2024-01-11T15:24:02.269Z,78.6
2024-01-11T15:25:15.530Z,78.5
2024-01-11T15:26:29.753Z,78.7
2024-01-11T15:27:44.011Z,79
2024-01-11T15:28:58.251Z,79.4
2024-01-11T15:30:12.492Z,79.8
2024-01-11T15:31:26.732Z,80.2
2024-01-11T15:32:40.972Z,80.6
2024-01-11T15:33:55.213Z,80.7
2024-01-11T15:35:09.453Z,80.8
2024-01-11T15:36:23.666Z,80.8
2024-01-11T15:37:37.934Z,81.2
2024-01-11T15:38:52.174Z,81.4
2024-01-11T15:40:06.415Z,81.9
2024-01-11T15:41:19.660Z,82.4
2024-01-11T15:42:33.911Z,83.1
2024-01-11T15:43:48.152Z,83.6
2024-01-11T15:45:02.392Z,84
2024-01-11T15:46:16.000Z,84.6
2024-01-11T15:47:30.874Z,84.8
2024-01-11T15:48:45.098Z,85.1
2024-01-11T15:49:59.354Z,85.7
2024-01-11T15:51:13.585Z,86
2024-01-11T15:52:27.890Z,86.4
2024-01-11T15:53:42.130Z,86.8
2024-01-11T15:54:56.371Z,87.4
2024-01-11T15:56:10.657Z,87.6
2024-01-11T15:57:23.976Z,88
2024-01-11T15:58:38.209Z,88.4
2024-01-11T15:59:52.468Z,88.6
2024-01-11T16:01:06.741Z,88.7
2024-01-11T16:02:21.057Z,89
2024-01-11T16:03:35.351Z,89.3
2024-01-11T16:04:49.646Z,89.3
2024-01-11T16:06:03.913Z,89.5
2024-01-11T16:07:18.234Z,89.7
2024-01-11T16:08:32.529Z,90
2024-01-11T16:09:46.823Z,90.2
2024-01-11T16:11:01.108Z,90.5
2024-01-11T16:12:15.412Z,90.5
2024-01-11T16:13:28.699Z,90.6
2024-01-11T16:14:43.017Z,90.4
2024-01-11T16:15:57.311Z,90.6
2024-01-11T16:17:11.605Z,90.6
2024-01-11T16:18:25.900Z,90.6
2024-01-11T16:19:40.194Z,90.5
2024-01-11T16:20:54.473Z,90.4
2024-01-11T16:22:08.783Z,90.4
2024-01-11T16:23:23.077Z,90.5
2024-01-11T16:24:37.372Z,90.7
2024-01-11T16:25:51.655Z,90.7
2024-01-11T16:27:05.960Z,90.8
2024-01-11T16:28:20.255Z,90.8
2024-01-11T16:29:33.565Z,91
2024-01-11T16:30:47.859Z,91.1
2024-01-11T16:32:02.154Z,91.4
2024-01-11T16:33:16.448Z,91.7
2024-01-11T16:34:30.743Z,91.9
2024-01-11T16:35:45.037Z,92.3
2024-01-11T16:36:59.332Z,92.5
2024-01-11T16:38:13.626Z,92.7
2024-01-11T16:39:27.920Z,92.8
2024-01-11T16:40:42.215Z,92.8
2024-01-11T16:41:56.509Z,93.1